createdAt,value
2022-12-18T00:00:20.011Z,0.00
2022-12-18T00:01:24.113Z,0.00
2022-12-18T00:02:14.846Z,0.00
2022-12-18T00:03:38.681Z,0.00
2022-12-18T00:04:14.774Z,0.00
2022-12-18T00:05:13.615Z,0.00
2022-12-18T00:06:13.612Z,0.00
2022-12-18T00:07:13.617Z,0.00
2022-12-18T00:08:13.562Z,0.00
2022-12-18T00:09:13.535Z,0.00
2022-12-18T00:10:15.474Z,0.00
2022-12-18T00:11:13.563Z,0.00
2022-12-18T00:13:13.494Z,0.00
2022-12-18T00:14:13.456Z,0.00
2022-12-18T00:15:13.472Z,0.00
2022-12-18T00:16:13.464Z,0.00
2022-12-18T00:17:13.436Z,0.00
2022-12-18T00:18:16.081Z,0.00
2022-12-18T00:19:15.363Z,0.00
2022-12-18T00:20:13.342Z,0.00
2022-12-18T00:21:13.350Z,0.00
2022-12-18T00:22:13.355Z,0.00
2022-12-18T00:23:13.324Z,0.00
2022-12-18T00:24:13.283Z,0.00
2022-12-18T00:25:13.281Z,0.00
2022-12-18T00:26:13.255Z,0.00
2022-12-18T00:27:14.271Z,0.00
2022-12-18T00:28:13.248Z,0.00
2022-12-18T00:29:13.223Z,0.00
2022-12-18T00:30:13.175Z,0.00
2022-12-18T00:31:13.228Z,0.00
2022-12-18T00:32:13.171Z,0.00
2022-12-18T00:33:13.139Z,0.00
2022-12-18T00:34:13.129Z,0.00
2022-12-18T00:35:13.104Z,0.00
2022-12-18T00:36:13.071Z,0.00
2022-12-18T00:37:18.283Z,0.00
2022-12-18T00:38:15.038Z,0.00
2022-12-18T00:39:13.031Z,0.00
2022-12-18T00:40:13.014Z,0.00
2022-12-18T00:41:13.037Z,0.00
2022-12-18T00:42:13.075Z,0.00
2022-12-18T00:43:12.963Z,0.00
2022-12-18T00:44:12.947Z,0.00
2022-12-18T00:45:13.429Z,0.00
2022-12-18T00:46:13.964Z,0.00
2022-12-18T00:47:12.921Z,0.00
2022-12-18T00:48:12.906Z,0.00
2022-12-18T00:49:12.890Z,0.00
2022-12-18T00:50:12.841Z,0.00
2022-12-18T00:51:12.852Z,0.00
2022-12-18T00:52:12.852Z,0.00
2022-12-18T00:53:12.794Z,0.00
2022-12-18T00:54:12.772Z,0.00
2022-12-18T00:55:15.270Z,0.00
2022-12-18T00:56:12.737Z,0.00
2022-12-18T00:57:12.743Z,0.00
2022-12-18T00:58:12.700Z,0.00
2022-12-18T00:59:12.697Z,0.00
2022-12-18T01:00:12.706Z,0.00
2022-12-18T01:01:12.676Z,0.00
2022-12-18T01:02:12.902Z,0.00
2022-12-18T01:03:12.676Z,0.00
2022-12-18T01:04:12.599Z,0.00
2022-12-18T01:05:12.582Z,0.00
2022-12-18T01:06:12.588Z,0.00
2022-12-18T01:07:12.589Z,0.00
2022-12-18T01:08:12.739Z,0.00
2022-12-18T01:09:12.518Z,0.00
2022-12-18T01:10:12.511Z,0.00
2022-12-18T01:11:12.477Z,0.00
2022-12-18T01:12:12.493Z,0.00
2022-12-18T01:13:12.451Z,0.00
2022-12-18T01:14:12.434Z,0.00
2022-12-18T01:15:12.403Z,0.00
2022-12-18T01:16:12.470Z,0.00
2022-12-18T01:17:12.413Z,0.00
2022-12-18T01:18:12.356Z,0.00
2022-12-18T01:19:12.605Z,0.00
2022-12-18T01:20:12.325Z,0.00
2022-12-18T01:21:12.305Z,0.00
2022-12-18T01:22:12.344Z,0.00
2022-12-18T01:23:12.282Z,0.00
2022-12-18T01:24:12.349Z,0.00
2022-12-18T01:25:12.251Z,0.00
2022-12-18T01:26:12.217Z,0.00
2022-12-18T01:27:12.239Z,0.00
2022-12-18T01:28:12.191Z,0.00
2022-12-18T01:29:12.175Z,0.00
2022-12-18T01:30:12.156Z,0.00
2022-12-18T01:31:12.157Z,0.00
2022-12-18T01:32:12.194Z,0.00
2022-12-18T01:33:12.114Z,0.00
2022-12-18T01:34:12.120Z,0.00
2022-12-18T01:35:12.081Z,0.00
2022-12-18T01:36:12.043Z,0.00
2022-12-18T01:37:12.077Z,0.00
2022-12-18T01:38:12.028Z,0.00
2022-12-18T01:39:12.020Z,0.00
2022-12-18T01:40:11.984Z,0.00
2022-12-18T01:41:12.170Z,0.00
2022-12-18T01:42:11.968Z,0.00
2022-12-18T01:43:11.970Z,0.00
2022-12-18T01:44:11.943Z,0.00
2022-12-18T01:45:11.995Z,0.00
2022-12-18T01:46:11.966Z,0.00
2022-12-18T01:47:11.898Z,0.00
2022-12-18T01:48:11.844Z,0.00
2022-12-18T01:49:11.818Z,0.00
2022-12-18T01:50:11.812Z,0.00
2022-12-18T01:51:11.838Z,0.00
2022-12-18T01:52:12.814Z,0.00
2022-12-18T01:53:11.751Z,0.00
2022-12-18T01:54:11.803Z,0.00
2022-12-18T01:55:11.725Z,0.00
2022-12-18T01:56:11.730Z,0.00
2022-12-18T01:57:11.719Z,0.00
2022-12-18T01:58:11.663Z,0.00
2022-12-18T01:59:11.721Z,0.00
2022-12-18T02:00:11.632Z,0.00
2022-12-18T02:01:11.665Z,0.00
2022-12-18T02:02:11.789Z,0.00
2022-12-18T02:03:11.670Z,0.00
2022-12-18T02:04:11.555Z,0.00
2022-12-18T02:05:11.561Z,0.00
2022-12-18T02:06:11.615Z,0.00
2022-12-18T02:07:11.555Z,0.00
2022-12-18T02:08:11.500Z,0.00
2022-12-18T02:09:11.485Z,0.00
2022-12-18T02:10:11.469Z,0.00
2022-12-18T02:11:11.444Z,0.00
2022-12-18T02:12:11.461Z,0.00
2022-12-18T02:13:11.479Z,0.00
2022-12-18T02:14:11.409Z,0.00
2022-12-18T02:15:11.386Z,0.00
2022-12-18T02:16:11.415Z,0.00
2022-12-18T02:17:11.386Z,0.00
2022-12-18T02:18:11.339Z,0.00
2022-12-18T02:19:11.315Z,0.00
2022-12-18T02:20:11.301Z,0.00
2022-12-18T02:21:11.277Z,0.00
2022-12-18T02:22:11.313Z,0.00
2022-12-18T02:23:11.250Z,0.00
2022-12-18T02:24:11.225Z,0.00
2022-12-18T02:25:11.213Z,0.00
2022-12-18T02:26:11.193Z,0.00
2022-12-18T02:27:11.213Z,0.00
2022-12-18T02:28:11.151Z,0.00
2022-12-18T02:29:12.225Z,0.00
2022-12-18T02:30:11.129Z,0.00
2022-12-18T02:31:11.164Z,0.00
2022-12-18T02:32:11.128Z,0.00
2022-12-18T02:33:11.086Z,0.00
2022-12-18T02:34:11.069Z,0.00
2022-12-18T02:35:11.062Z,0.00
2022-12-18T02:36:11.031Z,0.00
2022-12-18T02:37:11.060Z,0.00
2022-12-18T02:38:11.016Z,0.00
2022-12-18T02:39:11.032Z,0.00
2022-12-18T02:40:11.035Z,0.00
2022-12-18T02:41:10.962Z,0.00
2022-12-18T02:42:10.971Z,0.00
2022-12-18T02:43:10.918Z,0.00
2022-12-18T02:44:10.897Z,0.00
2022-12-18T02:45:10.946Z,0.00
2022-12-18T02:46:10.897Z,0.00
2022-12-18T02:47:10.890Z,0.00
2022-12-18T02:48:10.836Z,0.00
2022-12-18T02:49:10.816Z,0.00
2022-12-18T02:50:10.809Z,0.00
2022-12-18T02:51:10.794Z,0.00
2022-12-18T02:52:10.802Z,0.00
2022-12-18T02:53:10.759Z,0.00
2022-12-18T02:54:10.734Z,0.00
2022-12-18T02:55:10.729Z,0.00
2022-12-18T02:56:10.706Z,0.00
2022-12-18T02:57:10.695Z,0.00
2022-12-18T02:58:10.703Z,0.00
2022-12-18T02:59:10.651Z,0.00
2022-12-18T03:00:10.631Z,0.00
2022-12-18T03:01:10.740Z,0.00
2022-12-18T03:02:10.768Z,0.00
2022-12-18T03:03:10.694Z,0.00
2022-12-18T03:04:10.583Z,0.00
2022-12-18T03:05:10.556Z,0.00
2022-12-18T03:06:10.544Z,0.00
2022-12-18T03:07:10.516Z,0.00
2022-12-18T03:08:10.527Z,0.00
2022-12-18T03:09:10.587Z,0.00
2022-12-18T03:10:10.475Z,0.00
2022-12-18T03:11:10.443Z,0.00
2022-12-18T03:12:10.430Z,0.00
2022-12-18T03:13:10.450Z,0.00
2022-12-18T03:14:10.403Z,0.00
2022-12-18T03:15:15.998Z,0.00
2022-12-18T03:16:12.456Z,0.00
2022-12-18T03:17:10.366Z,0.00
2022-12-18T03:18:10.370Z,0.00
2022-12-18T03:19:10.338Z,0.00
2022-12-18T03:20:10.317Z,0.00
2022-12-18T03:21:10.291Z,0.00
2022-12-18T03:22:10.267Z,0.00
2022-12-18T03:23:10.317Z,0.00
2022-12-18T03:24:10.237Z,0.00
2022-12-18T03:25:10.220Z,0.00
2022-12-18T03:26:10.215Z,0.00
2022-12-18T03:27:10.183Z,0.00
2022-12-18T03:28:10.196Z,0.00
2022-12-18T03:29:10.178Z,0.00
2022-12-18T03:30:10.143Z,0.00
2022-12-18T03:31:10.145Z,0.00
2022-12-18T03:32:10.179Z,0.00
2022-12-18T03:33:10.115Z,0.00
2022-12-18T03:34:10.068Z,0.00
2022-12-18T03:35:10.053Z,0.00
2022-12-18T03:36:10.044Z,0.00
2022-12-18T03:37:10.035Z,0.00
2022-12-18T03:38:10.042Z,0.00
2022-12-18T03:39:10.009Z,0.00
2022-12-18T03:40:09.970Z,0.00
2022-12-18T03:41:09.959Z,0.00
2022-12-18T03:42:09.930Z,0.00
2022-12-18T03:43:09.954Z,0.00
2022-12-18T03:44:09.912Z,0.00
2022-12-18T03:45:09.887Z,0.00
2022-12-18T03:46:09.962Z,0.00
2022-12-18T03:47:09.865Z,0.00
2022-12-18T03:48:09.940Z,0.00
2022-12-18T03:49:09.820Z,0.00
2022-12-18T03:50:12.816Z,0.00
2022-12-18T03:51:10.803Z,0.00
2022-12-18T03:52:09.781Z,0.00
2022-12-18T03:53:09.794Z,0.00
2022-12-18T03:54:09.744Z,0.00
2022-12-18T03:55:09.734Z,0.00
2022-12-18T03:56:09.712Z,0.00
2022-12-18T03:57:09.689Z,0.00
2022-12-18T03:58:09.712Z,0.00
2022-12-18T03:59:09.668Z,0.00
2022-12-18T04:00:09.648Z,0.00
2022-12-18T04:01:09.696Z,0.00
2022-12-18T04:02:09.705Z,0.00
2022-12-18T04:03:09.664Z,0.00
2022-12-18T04:04:09.789Z,0.00
2022-12-18T04:05:09.568Z,0.00
2022-12-18T04:06:09.541Z,0.00
2022-12-18T04:07:09.527Z,0.00
2022-12-18T04:08:09.537Z,0.00
2022-12-18T04:09:09.491Z,0.00
2022-12-18T04:10:09.474Z,0.00
2022-12-18T04:11:09.459Z,0.00
2022-12-18T04:12:09.456Z,0.00
2022-12-18T04:13:09.468Z,0.00
2022-12-18T04:14:14.434Z,0.00
2022-12-18T04:15:11.393Z,0.00
2022-12-18T04:16:09.458Z,0.00
2022-12-18T04:17:09.357Z,0.00
2022-12-18T04:18:09.469Z,0.00
2022-12-18T04:19:09.366Z,0.00
2022-12-18T04:20:09.391Z,0.00
2022-12-18T04:21:09.319Z,0.00
2022-12-18T04:22:09.284Z,0.00
2022-12-18T04:23:09.297Z,0.00
2022-12-18T04:24:09.251Z,0.00
2022-12-18T04:25:09.238Z,0.00
2022-12-18T04:26:09.215Z,0.00
2022-12-18T04:27:09.211Z,0.00
2022-12-18T04:28:09.213Z,0.00
2022-12-18T04:29:09.166Z,0.00
2022-12-18T04:30:09.149Z,0.00
2022-12-18T04:31:09.194Z,0.00
2022-12-18T04:32:09.115Z,0.00
2022-12-18T04:33:09.221Z,0.00
2022-12-18T04:34:09.080Z,0.00
2022-12-18T04:35:09.067Z,0.00
2022-12-18T04:36:09.138Z,0.00
2022-12-18T04:37:09.042Z,0.00
2022-12-18T04:38:09.066Z,0.00
2022-12-18T04:39:09.004Z,0.00
2022-12-18T04:40:08.994Z,0.00
2022-12-18T04:41:08.968Z,0.00
2022-12-18T04:42:08.949Z,0.00
2022-12-18T04:43:08.996Z,0.00
2022-12-18T04:44:08.927Z,0.00
2022-12-18T04:45:08.920Z,0.00
2022-12-18T04:46:08.976Z,0.00
2022-12-18T04:47:08.881Z,0.00
2022-12-18T04:48:08.892Z,0.00
2022-12-18T04:49:08.907Z,0.00
2022-12-18T04:50:08.832Z,0.00
2022-12-18T04:51:08.811Z,0.00
2022-12-18T04:52:08.947Z,0.00
2022-12-18T04:53:08.823Z,0.00
2022-12-18T04:54:09.763Z,0.00
2022-12-18T04:55:08.739Z,0.00
2022-12-18T04:56:08.738Z,0.00
2022-12-18T04:57:08.748Z,0.00
2022-12-18T04:58:08.719Z,0.00
2022-12-18T04:59:08.681Z,0.00
2022-12-18T05:00:08.665Z,0.00
2022-12-18T05:01:08.657Z,0.00
2022-12-18T05:02:08.708Z,0.00
2022-12-18T05:03:08.636Z,0.00
2022-12-18T05:04:08.660Z,0.00
2022-12-18T05:05:08.571Z,0.00
2022-12-18T05:06:08.560Z,0.00
2022-12-18T05:07:08.530Z,0.00
2022-12-18T05:08:09.625Z,0.00
2022-12-18T05:09:09.499Z,0.00
2022-12-18T05:10:08.515Z,0.00
2022-12-18T05:11:08.491Z,0.00
2022-12-18T05:12:08.457Z,0.00
2022-12-18T05:13:08.477Z,0.00
2022-12-18T05:14:08.480Z,0.00
2022-12-18T05:15:08.418Z,0.00
2022-12-18T05:16:08.463Z,0.00
2022-12-18T05:17:08.404Z,0.00
2022-12-18T05:18:08.387Z,0.00
2022-12-18T05:19:08.347Z,0.00
2022-12-18T05:20:08.352Z,0.00
2022-12-18T05:21:08.313Z,0.00
2022-12-18T05:22:08.319Z,0.00
2022-12-18T05:23:08.319Z,0.00
2022-12-18T05:24:08.336Z,0.00
2022-12-18T05:25:08.255Z,0.00
2022-12-18T05:26:08.234Z,0.00
2022-12-18T05:27:08.208Z,0.00
2022-12-18T05:28:08.214Z,0.00
2022-12-18T05:29:08.171Z,0.00
2022-12-18T05:30:08.191Z,0.00
2022-12-18T05:31:08.188Z,0.00
2022-12-18T05:32:08.121Z,0.00
2022-12-18T05:33:08.136Z,0.00
2022-12-18T05:34:08.093Z,0.00
2022-12-18T05:35:08.067Z,0.00
2022-12-18T05:36:08.059Z,0.00
2022-12-18T05:37:08.047Z,0.00
2022-12-18T05:38:08.057Z,0.00
2022-12-18T05:39:08.009Z,0.00
2022-12-18T05:40:08.056Z,0.00
2022-12-18T05:41:07.970Z,0.00
2022-12-18T05:42:07.953Z,0.00
2022-12-18T05:43:07.980Z,0.00
2022-12-18T05:44:07.948Z,0.00
2022-12-18T05:45:07.904Z,0.00
2022-12-18T05:46:07.924Z,0.00
2022-12-18T05:47:07.865Z,0.00
2022-12-18T05:48:07.883Z,0.00
2022-12-18T05:49:07.934Z,0.00
2022-12-18T05:50:07.828Z,0.00
2022-12-18T05:51:07.812Z,0.00
2022-12-18T05:52:07.801Z,0.00
2022-12-18T05:53:07.809Z,0.00
2022-12-18T05:54:07.758Z,0.00
2022-12-18T05:55:07.738Z,0.00
2022-12-18T05:56:07.792Z,0.00
2022-12-18T05:57:07.708Z,0.00
2022-12-18T05:58:07.694Z,0.00
2022-12-18T05:59:07.713Z,0.00
2022-12-18T06:00:07.661Z,0.00
2022-12-18T06:01:07.640Z,0.00
2022-12-18T06:02:07.706Z,0.00
2022-12-18T06:03:07.644Z,0.00
2022-12-18T06:04:07.641Z,0.00
2022-12-18T06:05:07.574Z,0.00
2022-12-18T06:06:07.551Z,0.00
2022-12-18T06:07:07.541Z,0.00
2022-12-18T06:08:07.519Z,0.00
2022-12-18T06:09:07.541Z,0.00
2022-12-18T06:10:07.485Z,0.00
2022-12-18T06:11:07.465Z,0.00
2022-12-18T06:12:07.521Z,0.00
2022-12-18T06:13:07.435Z,0.00
2022-12-18T06:14:07.489Z,0.00
2022-12-18T06:15:07.402Z,0.00
2022-12-18T06:16:07.471Z,0.00
2022-12-18T06:17:07.372Z,0.00
2022-12-18T06:18:07.359Z,0.00
2022-12-18T06:19:07.374Z,0.00
2022-12-18T06:20:07.327Z,0.00
2022-12-18T06:21:07.311Z,0.00
2022-12-18T06:22:07.294Z,0.00
2022-12-18T06:23:07.270Z,0.00
2022-12-18T06:24:07.296Z,0.00
2022-12-18T06:25:07.231Z,0.00
2022-12-18T06:26:08.228Z,0.00
2022-12-18T06:27:07.208Z,0.00
2022-12-18T06:28:07.256Z,4.00
2022-12-18T06:29:07.199Z,0.00
2022-12-18T06:30:07.163Z,0.00
2022-12-18T06:31:07.230Z,0.00
2022-12-18T06:32:07.121Z,4.00
2022-12-18T06:33:07.109Z,0.00
2022-12-18T06:34:07.121Z,4.00
2022-12-18T06:35:07.082Z,4.00
2022-12-18T06:36:07.050Z,0.00
2022-12-18T06:37:07.035Z,4.00
2022-12-18T06:38:07.027Z,4.00
2022-12-18T06:39:07.049Z,4.00
2022-12-18T06:40:07.005Z,4.00
2022-12-18T06:41:06.969Z,4.00
2022-12-18T06:42:06.962Z,4.00
2022-12-18T06:43:06.939Z,4.00
2022-12-18T06:44:07.026Z,8.00
2022-12-18T06:45:06.910Z,8.00
2022-12-18T06:46:06.943Z,8.00
2022-12-18T06:47:06.875Z,12.00
2022-12-18T06:48:06.856Z,12.00
2022-12-18T06:49:06.876Z,16.00
2022-12-18T06:50:06.817Z,20.00
2022-12-18T06:51:06.822Z,24.00
2022-12-18T06:52:06.793Z,28.00
2022-12-18T06:53:06.780Z,32.00
2022-12-18T06:54:06.790Z,36.00
2022-12-18T06:55:06.745Z,44.00
2022-12-18T06:56:38.590Z,52.00
2022-12-18T06:57:06.706Z,60.00
2022-12-18T06:58:06.707Z,68.00
2022-12-18T06:59:06.726Z,76.00
2022-12-18T07:00:06.743Z,88.00
2022-12-18T07:01:06.709Z,104.00
2022-12-18T07:02:06.756Z,116.00
2022-12-18T07:03:06.633Z,128.00
2022-12-18T07:04:06.620Z,148.00
2022-12-18T07:05:10.773Z,168.00
2022-12-18T07:06:07.557Z,188.00
2022-12-18T07:07:06.538Z,208.00
2022-12-18T07:08:06.522Z,232.00
2022-12-18T07:09:06.542Z,260.00
2022-12-18T07:10:06.543Z,288.00
2022-12-18T07:11:06.492Z,320.00
2022-12-18T07:12:06.462Z,352.00
2022-12-18T07:13:06.449Z,388.00
2022-12-18T07:14:06.458Z,424.00
2022-12-18T07:15:06.408Z,464.00
2022-12-18T07:16:10.921Z,508.00
2022-12-18T07:17:08.394Z,552.00
2022-12-18T07:18:06.358Z,596.00
2022-12-18T07:19:06.374Z,644.00
2022-12-18T07:20:06.325Z,692.00
2022-12-18T07:21:06.309Z,744.00
2022-12-18T07:22:06.306Z,796.00
2022-12-18T07:23:06.276Z,856.00
2022-12-18T07:24:06.294Z,912.00
2022-12-18T07:25:06.243Z,972.00
2022-12-18T07:26:06.234Z,1032.00
2022-12-18T07:27:06.213Z,1100.00
2022-12-18T07:28:06.195Z,1164.00
2022-12-18T07:29:06.208Z,1236.00
2022-12-18T07:30:06.167Z,1300.00
2022-12-18T07:31:06.163Z,1428.00
2022-12-18T07:32:07.259Z,1668.00
2022-12-18T07:33:06.112Z,1908.00
2022-12-18T07:34:06.210Z,2036.00
2022-12-18T07:35:06.095Z,2328.00
2022-12-18T07:36:06.053Z,2472.00
2022-12-18T07:37:06.075Z,2692.00
2022-12-18T07:38:06.028Z,2796.00
2022-12-18T07:39:06.177Z,2380.00
2022-12-18T07:40:05.999Z,2160.00
2022-12-18T07:41:06.737Z,2400.00
2022-12-18T07:42:05.965Z,3024.00
2022-12-18T07:43:05.966Z,3372.00
2022-12-18T07:44:05.970Z,3344.00
2022-12-18T07:45:05.927Z,3540.00
2022-12-18T07:46:05.941Z,4400.00
2022-12-18T07:47:10.531Z,5272.00
2022-12-18T07:48:07.931Z,6012.00
2022-12-18T07:49:05.883Z,6276.00
2022-12-18T07:50:05.843Z,6416.00
2022-12-18T07:51:05.798Z,9184.00
2022-12-18T07:52:05.792Z,12160.00
2022-12-18T07:53:05.820Z,13248.00
2022-12-18T07:54:05.818Z,15712.00
2022-12-18T07:55:05.732Z,16992.00
2022-12-18T07:56:26.406Z,17504.00
2022-12-18T07:57:21.316Z,20384.00
2022-12-18T07:58:07.692Z,21792.00
2022-12-18T07:59:05.701Z,21472.00
2022-12-18T08:00:05.681Z,23104.00
2022-12-18T08:01:05.661Z,23872.00
2022-12-18T08:02:05.755Z,21664.00
2022-12-18T08:03:05.610Z,18720.00
2022-12-18T08:04:05.743Z,11328.00
2022-12-18T08:05:05.559Z,5284.00
2022-12-18T08:06:05.546Z,5212.00
2022-12-18T08:07:05.550Z,5316.00
2022-12-18T08:08:05.514Z,5460.00
2022-12-18T08:09:05.514Z,5612.00
2022-12-18T08:10:05.513Z,5852.00
2022-12-18T08:11:05.471Z,13472.00
2022-12-18T08:12:05.450Z,25600.00
2022-12-18T08:13:05.486Z,31168.00
2022-12-18T08:14:05.413Z,32128.00
2022-12-18T08:15:05.447Z,32000.00
2022-12-18T08:16:05.375Z,30176.00
2022-12-18T08:17:05.454Z,29440.00
2022-12-18T08:18:08.062Z,29248.00
2022-12-18T08:19:05.332Z,31936.00
2022-12-18T08:20:05.411Z,32800.00
2022-12-18T08:21:05.320Z,36096.00
2022-12-18T08:22:05.281Z,36640.00
2022-12-18T08:23:05.254Z,38080.00
2022-12-18T08:24:05.255Z,38592.00
2022-12-18T08:25:05.260Z,38208.00
2022-12-18T08:26:05.219Z,37536.00
2022-12-18T08:27:34.624Z,37888.00
2022-12-18T08:28:07.176Z,39488.00
2022-12-18T08:29:05.179Z,37024.00
2022-12-18T08:30:05.212Z,25056.00
2022-12-18T08:31:05.239Z,10416.00
2022-12-18T08:32:05.161Z,7880.00
2022-12-18T08:33:05.119Z,8048.00
2022-12-18T08:34:05.108Z,14208.00
2022-12-18T08:35:05.090Z,32352.00
2022-12-18T08:36:06.131Z,36256.00
2022-12-18T08:37:05.034Z,41152.00
2022-12-18T08:38:04.998Z,40864.00
2022-12-18T08:39:05.992Z,43168.00
2022-12-18T08:40:05.006Z,44096.00
2022-12-18T08:41:04.959Z,47808.00
2022-12-18T08:42:09.854Z,50688.00
2022-12-18T08:43:06.930Z,50560.00
2022-12-18T08:44:04.913Z,50624.00
2022-12-18T08:45:04.936Z,50176.00
2022-12-18T08:46:04.912Z,49312.00
2022-12-18T08:47:04.861Z,50016.00
2022-12-18T08:48:04.856Z,51552.00
2022-12-18T08:49:04.824Z,49632.00
2022-12-18T08:50:04.922Z,50528.00
2022-12-18T08:51:04.797Z,53632.00
2022-12-18T08:52:04.849Z,52960.00
2022-12-18T08:53:04.759Z,52032.00
2022-12-18T08:54:04.738Z,37056.00
2022-12-18T08:55:04.752Z,15616.00
2022-12-18T08:56:04.712Z,17152.00
2022-12-18T08:57:04.715Z,39968.00
2022-12-18T08:58:04.683Z,55584.00
2022-12-18T08:59:04.657Z,54560.00
2022-12-18T09:00:04.685Z,54816.00
2022-12-18T09:01:04.685Z,54720.00
2022-12-18T09:02:04.785Z,56768.00
2022-12-18T09:03:04.647Z,59424.00
2022-12-18T09:04:04.576Z,57632.00
2022-12-18T09:05:04.602Z,48672.00
2022-12-18T09:06:04.540Z,41696.00
2022-12-18T09:07:04.534Z,36160.00
2022-12-18T09:08:04.576Z,29568.00
2022-12-18T09:09:04.513Z,21856.00
2022-12-18T09:10:04.503Z,29760.00
2022-12-18T09:11:04.460Z,42432.00
2022-12-18T09:12:04.455Z,46272.00
2022-12-18T09:13:04.430Z,41216.00
2022-12-18T09:14:04.424Z,26240.00
2022-12-18T09:15:04.539Z,17696.00
2022-12-18T09:16:04.396Z,18240.00
2022-12-18T09:17:04.451Z,30688.00
2022-12-18T09:18:04.347Z,51488.00
2022-12-18T09:19:04.328Z,54016.00
2022-12-18T09:20:08.410Z,57472.00
2022-12-18T09:21:04.356Z,56832.00
2022-12-18T09:22:04.273Z,54752.00
2022-12-18T09:23:04.272Z,54208.00
2022-12-18T09:24:04.316Z,50400.00
2022-12-18T09:25:04.361Z,57120.00
2022-12-18T09:26:04.213Z,58272.00
2022-12-18T09:27:04.211Z,52032.00
2022-12-18T09:28:04.175Z,58208.00
2022-12-18T09:29:04.171Z,61056.00
2022-12-18T09:30:04.406Z,58208.00
2022-12-18T09:31:04.154Z,52320.00
2022-12-18T09:32:04.106Z,36832.00
2022-12-18T09:33:04.089Z,21856.00
2022-12-18T09:34:04.078Z,18432.00
2022-12-18T09:35:04.104Z,28992.00
2022-12-18T09:36:04.051Z,49280.00
2022-12-18T09:37:04.026Z,54272.00
2022-12-18T09:38:04.020Z,59008.00
2022-12-18T09:39:08.163Z,57472.00
2022-12-18T09:40:05.089Z,55776.00
2022-12-18T09:41:03.962Z,57376.00
2022-12-18T09:42:04.973Z,60704.00
2022-12-18T09:43:03.928Z,58688.00
2022-12-18T09:44:03.951Z,61312.00
2022-12-18T09:45:04.055Z,62144.00
2022-12-18T09:46:03.993Z,62880.00
2022-12-18T09:47:03.853Z,58912.00
2022-12-18T09:48:03.841Z,55648.00
2022-12-18T09:49:03.820Z,39872.00
2022-12-18T09:50:03.851Z,22816.00
2022-12-18T09:51:03.809Z,22720.00
2022-12-18T09:52:03.776Z,33664.00
2022-12-18T09:53:03.772Z,42304.00
2022-12-18T09:54:03.732Z,45664.00
2022-12-18T09:55:03.757Z,50752.00
2022-12-18T09:56:03.772Z,50016.00
2022-12-18T09:57:03.695Z,47840.00
2022-12-18T09:58:03.670Z,49088.00
2022-12-18T09:59:03.653Z,50944.00
2022-12-18T10:00:03.677Z,53120.00
2022-12-18T10:01:03.621Z,57696.00
2022-12-18T10:02:03.750Z,58208.00
2022-12-18T10:03:03.781Z,40896.00
2022-12-18T10:04:03.737Z,21632.00
2022-12-18T10:05:03.683Z,26496.00
2022-12-18T10:06:03.631Z,51168.00
2022-12-18T10:07:08.931Z,64480.00
2022-12-18T10:08:05.615Z,62368.00
2022-12-18T10:09:03.580Z,64224.00
2022-12-18T10:10:03.585Z,62592.00
2022-12-18T10:11:03.584Z,58688.00
2022-12-18T10:12:03.606Z,57664.00
2022-12-18T10:13:04.852Z,63680.00
2022-12-18T10:14:04.521Z,63936.00
2022-12-18T10:15:03.480Z,60192.00
2022-12-18T10:16:03.458Z,40864.00
2022-12-18T10:17:03.439Z,21408.00
2022-12-18T10:18:03.425Z,24896.00
2022-12-18T10:19:03.415Z,42656.00
2022-12-18T10:20:03.373Z,46784.00
2022-12-18T10:21:03.378Z,46496.00
2022-12-18T10:22:03.378Z,44928.00
2022-12-18T10:23:03.370Z,41664.00
2022-12-18T10:24:03.350Z,40576.00
2022-12-18T10:25:03.361Z,40160.00
2022-12-18T10:26:03.295Z,38496.00
2022-12-18T10:27:03.306Z,34720.00
2022-12-18T10:28:08.765Z,24320.00
2022-12-18T10:29:05.845Z,19328.00
2022-12-18T10:30:04.236Z,34304.00
2022-12-18T10:31:03.299Z,45760.00
2022-12-18T10:32:03.312Z,40384.00
2022-12-18T10:33:03.204Z,58208.00
2022-12-18T10:34:03.171Z,58112.00
2022-12-18T10:35:03.312Z,56800.00
2022-12-18T10:36:03.162Z,56704.00
2022-12-18T10:37:03.094Z,48864.00
2022-12-18T10:38:03.148Z,35776.00
2022-12-18T10:39:03.134Z,17888.00
2022-12-18T10:40:03.115Z,23936.00
2022-12-18T10:41:03.075Z,36480.00
2022-12-18T10:42:03.079Z,41952.00
2022-12-18T10:43:02.991Z,42720.00
2022-12-18T10:44:03.051Z,42880.00
2022-12-18T10:45:02.986Z,43584.00
2022-12-18T10:46:03.035Z,44736.00
2022-12-18T10:47:06.160Z,30336.00
2022-12-18T10:48:03.960Z,15616.00
2022-12-18T10:49:02.942Z,16288.00
2022-12-18T10:50:02.928Z,17056.00
2022-12-18T10:51:12.896Z,14412.00
2022-12-18T10:52:04.940Z,14388.00
2022-12-18T10:53:02.931Z,14256.00
2022-12-18T10:54:02.890Z,17216.00
2022-12-18T10:55:02.803Z,24096.00
2022-12-18T10:56:02.833Z,34304.00
2022-12-18T10:57:02.788Z,45632.00
2022-12-18T10:58:02.791Z,46688.00
2022-12-18T10:59:02.755Z,47520.00
2022-12-18T11:00:02.740Z,49120.00
2022-12-18T11:01:08.573Z,37440.00
2022-12-18T11:02:03.942Z,24800.00
2022-12-18T11:03:02.769Z,20000.00
2022-12-18T11:04:03.005Z,19136.00
2022-12-18T11:05:02.663Z,20416.00
2022-12-18T11:06:02.667Z,18528.00
2022-12-18T11:07:02.671Z,17472.00
2022-12-18T11:08:02.630Z,19392.00
2022-12-18T11:09:05.360Z,19616.00
2022-12-18T11:10:03.541Z,20800.00
2022-12-18T11:11:02.555Z,23840.00
2022-12-18T11:12:02.483Z,26432.00
2022-12-18T11:13:02.499Z,25984.00
2022-12-18T11:14:02.502Z,26272.00
2022-12-18T11:15:02.440Z,25088.00
2022-12-18T11:16:02.521Z,23328.00
2022-12-18T11:17:24.803Z,21792.00
2022-12-18T11:18:04.513Z,20128.00
2022-12-18T11:19:02.452Z,20128.00
2022-12-18T11:20:02.386Z,20192.00
2022-12-18T11:21:02.427Z,18464.00
2022-12-18T11:22:02.313Z,17056.00
2022-12-18T11:23:02.248Z,16448.00
2022-12-18T11:24:02.253Z,15904.00
2022-12-18T11:25:32.168Z,14352.00
2022-12-18T11:26:04.228Z,13940.00
2022-12-18T11:27:02.186Z,13444.00
2022-12-18T11:28:02.170Z,13388.00
2022-12-18T11:29:02.142Z,13332.00
2022-12-18T11:30:02.151Z,13548.00
2022-12-18T11:31:02.174Z,13364.00
2022-12-18T11:32:02.099Z,13088.00
2022-12-18T11:33:02.088Z,12912.00
2022-12-18T11:35:04.120Z,12044.00
2022-12-18T11:36:02.068Z,12160.00
2022-12-18T11:37:02.032Z,12492.00
2022-12-18T11:38:02.005Z,12852.00
2022-12-18T11:39:01.986Z,12856.00
2022-12-18T11:40:01.971Z,12632.00
2022-12-18T11:41:01.970Z,12768.00
2022-12-18T11:42:01.921Z,12512.00
2022-12-18T11:43:01.920Z,12260.00
2022-12-18T11:44:01.887Z,12360.00
2022-12-18T11:45:01.889Z,12940.00
2022-12-18T11:46:01.994Z,13016.00
2022-12-18T11:47:01.880Z,13368.00
2022-12-18T11:48:01.829Z,12276.00
2022-12-18T11:49:01.808Z,11252.00
2022-12-18T11:50:01.802Z,10868.00
2022-12-18T11:51:01.880Z,10696.00
2022-12-18T11:52:01.753Z,10580.00
2022-12-18T11:53:05.956Z,10512.00
2022-12-18T11:54:02.735Z,10468.00
2022-12-18T11:55:01.702Z,10412.00
2022-12-18T11:56:01.716Z,10248.00
2022-12-18T11:57:01.666Z,10064.00
2022-12-18T11:58:01.661Z,9936.00
2022-12-18T11:59:01.636Z,9816.00
2022-12-18T12:00:01.646Z,9724.00
2022-12-18T12:01:01.658Z,9612.00
2022-12-18T12:02:01.744Z,9548.00
2022-12-18T12:03:01.653Z,9496.00
2022-12-18T12:04:01.563Z,9432.00
2022-12-18T12:05:01.533Z,9380.00
2022-12-18T12:06:01.553Z,9380.00
2022-12-18T12:07:03.476Z,9280.00
2022-12-18T12:08:02.546Z,9316.00
2022-12-18T12:09:01.471Z,9224.00
2022-12-18T12:10:01.463Z,9188.00
2022-12-18T12:11:01.422Z,9164.00
2022-12-18T12:12:01.474Z,9112.00
2022-12-18T12:13:01.411Z,9048.00
2022-12-18T12:14:01.375Z,8988.00
2022-12-18T12:15:01.376Z,8832.00
2022-12-18T12:16:01.372Z,8700.00
2022-12-18T12:17:01.427Z,8600.00
2022-12-18T12:18:01.308Z,8504.00
2022-12-18T12:19:01.300Z,8416.00
2022-12-18T12:20:01.264Z,8328.00
2022-12-18T12:21:01.262Z,8296.00
2022-12-18T12:22:01.271Z,8280.00
2022-12-18T12:23:01.283Z,8244.00
2022-12-18T12:24:01.200Z,8180.00
2022-12-18T12:25:01.186Z,8060.00
2022-12-18T12:26:01.161Z,7944.00
2022-12-18T12:27:01.211Z,7808.00
2022-12-18T12:28:01.126Z,7688.00
2022-12-18T12:29:01.114Z,7624.00
2022-12-18T12:30:01.129Z,7584.00
2022-12-18T12:31:01.074Z,7556.00
2022-12-18T12:32:01.244Z,7504.00
2022-12-18T12:33:01.038Z,7456.00
2022-12-18T12:34:01.037Z,7432.00
2022-12-18T12:35:06.076Z,7380.00
2022-12-18T12:36:02.997Z,7320.00
2022-12-18T12:37:01.011Z,7256.00
2022-12-18T12:38:00.974Z,7188.00
2022-12-18T12:39:01.006Z,7104.00